sensor_id;sensor_type;location;lat;lon;timestamp;P1;durP1;ratioP1;P2;durP2;ratioP2
12756;SDS011;31601;48.042;12.240;2022-11-20T00:01:06;4.70;;;2.67;;
12756;SDS011;31601;48.042;12.240;2022-11-20T00:03:33;3.57;;;2.43;;
12756;SDS011;31601;48.042;12.240;2022-11-20T00:06:02;3.70;;;2.30;;
12756;SDS011;31601;48.042;12.240;2022-11-20T00:08:30;4.17;;;2.30;;
12756;SDS011;31601;48.042;12.240;2022-11-20T00:10:57;6.57;;;2.27;;
12756;SDS011;31601;48.042;12.240;2022-11-20T00:13:28;3.50;;;2.20;;
12756;SDS011;31601;48.042;12.240;2022-11-20T00:15:56;4.40;;;2.30;;
12756;SDS011;31601;48.042;12.240;2022-11-20T00:18:24;4.33;;;2.43;;
12756;SDS011;31601;48.042;12.240;2022-11-20T00:20:50;3.53;;;2.00;;
12756;SDS011;31601;48.042;12.240;2022-11-20T00:23:17;3.83;;;2.40;;
12756;SDS011;31601;48.042;12.240;2022-11-20T00:25:45;3.83;;;2.50;;
12756;SDS011;31601;48.042;12.240;2022-11-20T00:28:11;4.03;;;2.70;;
12756;SDS011;31601;48.042;12.240;2022-11-20T00:30:38;3.07;;;2.17;;
12756;SDS011;31601;48.042;12.240;2022-11-20T00:33:05;3.00;;;2.40;;
12756;SDS011;31601;48.042;12.240;2022-11-20T00:35:31;4.00;;;2.20;;
12756;SDS011;31601;48.042;12.240;2022-11-20T00:37:58;4.50;;;2.20;;
12756;SDS011;31601;48.042;12.240;2022-11-20T00:40:24;3.63;;;2.67;;
12756;SDS011;31601;48.042;12.240;2022-11-20T00:42:52;3.53;;;2.23;;
12756;SDS011;31601;48.042;12.240;2022-11-20T00:45:18;3.40;;;2.37;;
12756;SDS011;31601;48.042;12.240;2022-11-20T00:47:45;2.10;;;1.80;;
12756;SDS011;31601;48.042;12.240;2022-11-20T00:50:11;2.47;;;1.80;;
12756;SDS011;31601;48.042;12.240;2022-11-20T00:52:38;4.37;;;2.20;;
12756;SDS011;31601;48.042;12.240;2022-11-20T00:55:05;3.13;;;1.97;;
12756;SDS011;31601;48.042;12.240;2022-11-20T00:57:32;3.40;;;1.90;;
12756;SDS011;31601;48.042;12.240;2022-11-20T01:00:00;4.53;;;2.27;;
12756;SDS011;31601;48.042;12.240;2022-11-20T01:02:26;2.23;;;1.80;;
12756;SDS011;31601;48.042;12.240;2022-11-20T01:04:53;3.30;;;1.80;;
12756;SDS011;31601;48.042;12.240;2022-11-20T01:07:19;3.10;;;1.80;;
12756;SDS011;31601;48.042;12.240;2022-11-20T01:09:45;2.33;;;2.00;;
12756;SDS011;31601;48.042;12.240;2022-11-20T01:12:12;4.10;;;1.87;;
12756;SDS011;31601;48.042;12.240;2022-11-20T01:14:38;2.57;;;1.80;;
12756;SDS011;31601;48.042;12.240;2022-11-20T01:17:07;3.27;;;2.13;;
12756;SDS011;31601;48.042;12.240;2022-11-20T01:19:33;2.47;;;2.10;;
12756;SDS011;31601;48.042;12.240;2022-11-20T01:21:59;3.63;;;1.90;;
12756;SDS011;31601;48.042;12.240;2022-11-20T01:24:26;2.87;;;1.90;;
12756;SDS011;31601;48.042;12.240;2022-11-20T01:26:53;6.60;;;1.93;;
12756;SDS011;31601;48.042;12.240;2022-11-20T01:29:20;4.37;;;1.80;;
12756;SDS011;31601;48.042;12.240;2022-11-20T01:31:48;4.10;;;1.80;;
12756;SDS011;31601;48.042;12.240;2022-11-20T01:34:17;5.67;;;1.87;;
12756;SDS011;31601;48.042;12.240;2022-11-20T01:36:44;1.97;;;1.43;;
12756;SDS011;31601;48.042;12.240;2022-11-20T01:39:13;3.67;;;1.50;;
12756;SDS011;31601;48.042;12.240;2022-11-20T01:41:40;1.97;;;1.63;;
12756;SDS011;31601;48.042;12.240;2022-11-20T01:47:12;1.90;;;1.50;;
12756;SDS011;31601;48.042;12.240;2022-11-20T01:49:44;3.53;;;1.70;;
12756;SDS011;31601;48.042;12.240;2022-11-20T01:52:15;3.17;;;1.57;;
12756;SDS011;31601;48.042;12.240;2022-11-20T01:54:44;3.30;;;1.73;;
12756;SDS011;31601;48.042;12.240;2022-11-20T01:57:14;4.27;;;1.70;;
12756;SDS011;31601;48.042;12.240;2022-11-20T01:59:44;1.97;;;1.50;;
12756;SDS011;31601;48.042;12.240;2022-11-20T02:02:14;2.20;;;1.43;;
12756;SDS011;31601;48.042;12.240;2022-11-20T02:04:41;3.87;;;1.70;;
12756;SDS011;31601;48.042;12.240;2022-11-20T02:07:09;3.20;;;1.67;;
12756;SDS011;31601;48.042;12.240;2022-11-20T02:09:36;2.30;;;1.60;;
12756;SDS011;31601;48.042;12.240;2022-11-20T02:12:03;4.63;;;1.80;;
12756;SDS011;31601;48.042;12.240;2022-11-20T02:14:30;2.20;;;1.70;;
12756;SDS011;31601;48.042;12.240;2022-11-20T02:16:55;1.97;;;1.50;;
12756;SDS011;31601;48.042;12.240;2022-11-20T02:19:22;2.40;;;1.40;;
12756;SDS011;31601;48.042;12.240;2022-11-20T02:21:55;3.23;;;1.83;;
12756;SDS011;31601;48.042;12.240;2022-11-20T02:24:27;1.60;;;1.50;;
12756;SDS011;31601;48.042;12.240;2022-11-20T02:26:54;2.40;;;2.07;;
12756;SDS011;31601;48.042;12.240;2022-11-20T02:29:24;1.70;;;1.60;;
12756;SDS011;31601;48.042;12.240;2022-11-20T02:31:53;3.60;;;2.07;;
12756;SDS011;31601;48.042;12.240;2022-11-20T02:34:21;2.67;;;1.90;;
12756;SDS011;31601;48.042;12.240;2022-11-20T02:36:48;2.17;;;1.70;;
12756;SDS011;31601;48.042;12.240;2022-11-20T02:39:16;3.50;;;1.90;;
12756;SDS011;31601;48.042;12.240;2022-11-20T02:41:44;4.20;;;1.60;;
12756;SDS011;31601;48.042;12.240;2022-11-20T02:44:11;2.40;;;1.60;;
12756;SDS011;31601;48.042;12.240;2022-11-20T02:46:38;2.67;;;1.90;;
12756;SDS011;31601;48.042;12.240;2022-11-20T02:49:05;5.60;;;1.87;;
12756;SDS011;31601;48.042;12.240;2022-11-20T02:51:31;2.67;;;1.90;;
12756;SDS011;31601;48.042;12.240;2022-11-20T02:53:58;2.30;;;1.83;;
12756;SDS011;31601;48.042;12.240;2022-11-20T02:56:25;4.07;;;2.10;;
12756;SDS011;31601;48.042;12.240;2022-11-20T02:58:53;2.83;;;1.87;;
12756;SDS011;31601;48.042;12.240;2022-11-20T03:01:19;3.83;;;2.13;;
12756;SDS011;31601;48.042;12.240;2022-11-20T03:03:46;2.13;;;1.93;;
12756;SDS011;31601;48.042;12.240;2022-11-20T03:06:13;3.90;;;2.13;;
12756;SDS011;31601;48.042;12.240;2022-11-20T03:08:40;3.40;;;2.27;;
12756;SDS011;31601;48.042;12.240;2022-11-20T03:11:07;3.67;;;2.40;;
12756;SDS011;31601;48.042;12.240;2022-11-20T03:13:34;3.40;;;2.30;;
12756;SDS011;31601;48.042;12.240;2022-11-20T03:16:07;3.23;;;2.20;;
12756;SDS011;31601;48.042;12.240;2022-11-20T03:18:34;5.57;;;2.20;;
12756;SDS011;31601;48.042;12.240;2022-11-20T03:21:01;2.23;;;2.03;;
12756;SDS011;31601;48.042;12.240;2022-11-20T03:23:28;3.50;;;2.40;;
12756;SDS011;31601;48.042;12.240;2022-11-20T03:26:06;3.50;;;2.10;;
12756;SDS011;31601;48.042;12.240;2022-11-20T03:28:33;4.87;;;2.10;;
12756;SDS011;31601;48.042;12.240;2022-11-20T03:31:04;2.40;;;2.03;;
12756;SDS011;31601;48.042;12.240;2022-11-20T03:33:33;2.63;;;2.30;;
12756;SDS011;31601;48.042;12.240;2022-11-20T03:36:00;2.23;;;2.03;;
12756;SDS011;31601;48.042;12.240;2022-11-20T03:38:28;2.80;;;2.50;;
12756;SDS011;31601;48.042;12.240;2022-11-20T03:40:57;3.70;;;2.43;;
12756;SDS011;31601;48.042;12.240;2022-11-20T03:43:24;3.40;;;2.63;;
12756;SDS011;31601;48.042;12.240;2022-11-20T03:45:51;3.20;;;2.60;;
12756;SDS011;31601;48.042;12.240;2022-11-20T03:48:19;3.00;;;2.40;;
12756;SDS011;31601;48.042;12.240;2022-11-20T03:50:45;2.93;;;2.47;;
12756;SDS011;31601;48.042;12.240;2022-11-20T03:53:12;2.53;;;2.30;;
12756;SDS011;31601;48.042;12.240;2022-11-20T03:55:39;2.60;;;2.40;;
12756;SDS011;31601;48.042;12.240;2022-11-20T03:58:05;2.80;;;2.37;;
12756;SDS011;31601;48.042;12.240;2022-11-20T04:00:32;3.03;;;2.50;;
12756;SDS011;31601;48.042;12.240;2022-11-20T04:02:59;3.00;;;2.30;;
12756;SDS011;31601;48.042;12.240;2022-11-20T04:05:27;3.43;;;2.60;;
12756;SDS011;31601;48.042;12.240;2022-11-20T04:07:53;3.33;;;2.73;;
12756;SDS011;31601;48.042;12.240;2022-11-20T04:10:20;3.40;;;2.60;;
12756;SDS011;31601;48.042;12.240;2022-11-20T04:12:46;2.57;;;2.37;;
12756;SDS011;31601;48.042;12.240;2022-11-20T04:15:13;3.50;;;2.70;;
12756;SDS011;31601;48.042;12.240;2022-11-20T04:17:40;3.57;;;2.40;;
12756;SDS011;31601;48.042;12.240;2022-11-20T04:20:06;2.90;;;2.43;;
12756;SDS011;31601;48.042;12.240;2022-11-20T04:22:35;2.73;;;2.53;;
12756;SDS011;31601;48.042;12.240;2022-11-20T04:25:01;2.93;;;2.60;;
12756;SDS011;31601;48.042;12.240;2022-11-20T04:27:29;3.00;;;2.50;;
12756;SDS011;31601;48.042;12.240;2022-11-20T04:29:56;3.93;;;2.83;;
12756;SDS011;31601;48.042;12.240;2022-11-20T04:32:23;3.10;;;2.37;;
12756;SDS011;31601;48.042;12.240;2022-11-20T04:34:50;3.20;;;2.40;;
12756;SDS011;31601;48.042;12.240;2022-11-20T04:37:16;3.67;;;2.70;;
12756;SDS011;31601;48.042;12.240;2022-11-20T04:39:44;4.23;;;2.83;;
12756;SDS011;31601;48.042;12.240;2022-11-20T04:42:11;2.97;;;2.50;;
12756;SDS011;31601;48.042;12.240;2022-11-20T04:44:56;2.57;;;2.27;;
12756;SDS011;31601;48.042;12.240;2022-11-20T04:47:23;2.40;;;2.20;;
12756;SDS011;31601;48.042;12.240;2022-11-20T04:49:50;2.43;;;2.23;;
12756;SDS011;31601;48.042;12.240;2022-11-20T04:52:17;4.13;;;2.43;;
12756;SDS011;31601;48.042;12.240;2022-11-20T04:54:45;2.60;;;2.40;;
12756;SDS011;31601;48.042;12.240;2022-11-20T04:57:12;3.57;;;2.23;;
12756;SDS011;31601;48.042;12.240;2022-11-20T04:59:40;2.80;;;2.30;;
12756;SDS011;31601;48.042;12.240;2022-11-20T05:02:07;2.80;;;2.10;;
12756;SDS011;31601;48.042;12.240;2022-11-20T05:04:34;4.67;;;2.20;;
12756;SDS011;31601;48.042;12.240;2022-11-20T05:07:00;2.30;;;2.10;;
12756;SDS011;31601;48.042;12.240;2022-11-20T05:09:26;3.43;;;2.13;;
12756;SDS011;31601;48.042;12.240;2022-11-20T05:11:54;2.87;;;2.43;;
12756;SDS011;31601;48.042;12.240;2022-11-20T05:14:21;2.87;;;2.33;;
12756;SDS011;31601;48.042;12.240;2022-11-20T05:16:47;2.60;;;2.33;;
12756;SDS011;31601;48.042;12.240;2022-11-20T05:19:14;3.03;;;2.37;;
12756;SDS011;31601;48.042;12.240;2022-11-20T05:21:40;3.40;;;2.23;;
12756;SDS011;31601;48.042;12.240;2022-11-20T05:24:07;5.90;;;2.30;;
12756;SDS011;31601;48.042;12.240;2022-11-20T05:26:33;4.23;;;2.30;;
12756;SDS011;31601;48.042;12.240;2022-11-20T05:29:01;3.97;;;2.00;;
12756;SDS011;31601;48.042;12.240;2022-11-20T05:31:28;2.53;;;2.33;;
12756;SDS011;31601;48.042;12.240;2022-11-20T05:33:55;2.60;;;2.40;;
12756;SDS011;31601;48.042;12.240;2022-11-20T05:36:22;3.27;;;2.40;;
12756;SDS011;31601;48.042;12.240;2022-11-20T05:38:49;2.30;;;2.10;;
12756;SDS011;31601;48.042;12.240;2022-11-20T05:41:17;4.30;;;2.80;;
12756;SDS011;31601;48.042;12.240;2022-11-20T05:43:46;3.10;;;2.57;;
12756;SDS011;31601;48.042;12.240;2022-11-20T05:46:15;3.27;;;2.50;;
12756;SDS011;31601;48.042;12.240;2022-11-20T05:48:43;4.47;;;2.90;;
12756;SDS011;31601;48.042;12.240;2022-11-20T05:51:11;3.43;;;3.00;;
12756;SDS011;31601;48.042;12.240;2022-11-20T05:53:39;4.23;;;2.43;;
12756;SDS011;31601;48.042;12.240;2022-11-20T05:56:06;2.83;;;2.53;;
12756;SDS011;31601;48.042;12.240;2022-11-20T05:58:35;3.40;;;2.77;;
12756;SDS011;31601;48.042;12.240;2022-11-20T06:01:03;3.13;;;2.67;;
12756;SDS011;31601;48.042;12.240;2022-11-20T06:03:33;3.50;;;2.50;;
12756;SDS011;31601;48.042;12.240;2022-11-20T06:05:59;3.80;;;3.00;;
12756;SDS011;31601;48.042;12.240;2022-11-20T06:08:27;3.03;;;2.67;;
12756;SDS011;31601;48.042;12.240;2022-11-20T06:10:54;2.90;;;2.50;;
12756;SDS011;31601;48.042;12.240;2022-11-20T06:13:20;3.20;;;2.50;;
12756;SDS011;31601;48.042;12.240;2022-11-20T06:15:48;3.50;;;2.93;;
12756;SDS011;31601;48.042;12.240;2022-11-20T06:18:14;4.17;;;2.73;;
12756;SDS011;31601;48.042;12.240;2022-11-20T06:20:42;4.50;;;3.23;;
12756;SDS011;31601;48.042;12.240;2022-11-20T06:23:09;3.90;;;2.97;;
12756;SDS011;31601;48.042;12.240;2022-11-20T06:25:37;6.07;;;3.60;;
12756;SDS011;31601;48.042;12.240;2022-11-20T06:28:03;3.90;;;3.10;;
12756;SDS011;31601;48.042;12.240;2022-11-20T06:30:30;5.30;;;2.93;;
12756;SDS011;31601;48.042;12.240;2022-11-20T06:32:56;3.77;;;3.10;;
12756;SDS011;31601;48.042;12.240;2022-11-20T06:35:23;4.67;;;3.30;;
12756;SDS011;31601;48.042;12.240;2022-11-20T06:37:51;4.77;;;3.47;;
12756;SDS011;31601;48.042;12.240;2022-11-20T06:40:17;7.43;;;3.63;;
12756;SDS011;31601;48.042;12.240;2022-11-20T06:42:44;5.60;;;4.60;;
12756;SDS011;31601;48.042;12.240;2022-11-20T06:45:10;6.53;;;4.10;;
12756;SDS011;31601;48.042;12.240;2022-11-20T06:47:37;5.07;;;3.97;;
12756;SDS011;31601;48.042;12.240;2022-11-20T06:50:04;4.00;;;3.60;;
12756;SDS011;31601;48.042;12.240;2022-11-20T06:52:32;4.77;;;4.10;;
12756;SDS011;31601;48.042;12.240;2022-11-20T06:55:00;7.17;;;4.50;;
12756;SDS011;31601;48.042;12.240;2022-11-20T06:57:27;9.00;;;6.37;;
12756;SDS011;31601;48.042;12.240;2022-11-20T06:59:53;8.90;;;6.17;;
12756;SDS011;31601;48.042;12.240;2022-11-20T07:02:20;7.23;;;5.80;;
12756;SDS011;31601;48.042;12.240;2022-11-20T07:04:46;6.77;;;5.30;;
12756;SDS011;31601;48.042;12.240;2022-11-20T07:07:13;6.53;;;5.93;;
12756;SDS011;31601;48.042;12.240;2022-11-20T07:09:39;5.63;;;4.80;;
12756;SDS011;31601;48.042;12.240;2022-11-20T07:12:07;5.63;;;5.03;;
12756;SDS011;31601;48.042;12.240;2022-11-20T07:14:34;5.10;;;4.60;;
12756;SDS011;31601;48.042;12.240;2022-11-20T07:17:01;5.77;;;4.83;;
12756;SDS011;31601;48.042;12.240;2022-11-20T07:19:27;6.30;;;4.83;;
12756;SDS011;31601;48.042;12.240;2022-11-20T07:21:54;6.10;;;5.50;;
12756;SDS011;31601;48.042;12.240;2022-11-20T07:24:21;6.33;;;4.80;;
12756;SDS011;31601;48.042;12.240;2022-11-20T07:26:47;8.20;;;6.90;;
12756;SDS011;31601;48.042;12.240;2022-11-20T07:29:15;8.47;;;6.17;;
12756;SDS011;31601;48.042;12.240;2022-11-20T07:31:42;6.73;;;5.40;;
12756;SDS011;31601;48.042;12.240;2022-11-20T07:34:09;5.17;;;4.67;;
12756;SDS011;31601;48.042;12.240;2022-11-20T07:36:35;7.80;;;5.83;;
12756;SDS011;31601;48.042;12.240;2022-11-20T07:39:02;8.07;;;7.27;;
12756;SDS011;31601;48.042;12.240;2022-11-20T07:41:29;7.83;;;6.77;;
12756;SDS011;31601;48.042;12.240;2022-11-20T07:43:56;7.73;;;6.17;;
12756;SDS011;31601;48.042;12.240;2022-11-20T07:46:24;4.93;;;4.40;;
12756;SDS011;31601;48.042;12.240;2022-11-20T07:48:50;5.20;;;3.90;;
12756;SDS011;31601;48.042;12.240;2022-11-20T07:51:17;5.50;;;5.00;;
12756;SDS011;31601;48.042;12.240;2022-11-20T07:53:43;6.40;;;4.77;;
12756;SDS011;31601;48.042;12.240;2022-11-20T07:56:10;4.97;;;4.50;;
12756;SDS011;31601;48.042;12.240;2022-11-20T07:58:39;5.50;;;3.67;;
12756;SDS011;31601;48.042;12.240;2022-11-20T08:01:06;6.47;;;4.13;;
12756;SDS011;31601;48.042;12.240;2022-11-20T08:03:34;5.30;;;4.43;;
12756;SDS011;31601;48.042;12.240;2022-11-20T08:06:02;5.37;;;4.63;;
12756;SDS011;31601;48.042;12.240;2022-11-20T08:08:29;6.53;;;3.77;;
12756;SDS011;31601;48.042;12.240;2022-11-20T08:10:56;4.30;;;3.90;;
12756;SDS011;31601;48.042;12.240;2022-11-20T08:13:44;4.23;;;3.83;;
12756;SDS011;31601;48.042;12.240;2022-11-20T08:16:28;4.67;;;3.40;;
12756;SDS011;31601;48.042;12.240;2022-11-20T08:18:56;5.80;;;3.40;;
12756;SDS011;31601;48.042;12.240;2022-11-20T08:21:22;3.40;;;3.10;;
12756;SDS011;31601;48.042;12.240;2022-11-20T08:23:49;4.27;;;3.33;;
12756;SDS011;31601;48.042;12.240;2022-11-20T08:26:15;3.77;;;3.30;;
12756;SDS011;31601;48.042;12.240;2022-11-20T08:28:42;3.83;;;2.80;;
12756;SDS011;31601;48.042;12.240;2022-11-20T08:31:09;3.30;;;2.73;;
12756;SDS011;31601;48.042;12.240;2022-11-20T08:33:35;4.90;;;3.17;;
12756;SDS011;31601;48.042;12.240;2022-11-20T08:36:04;3.50;;;2.83;;
12756;SDS011;31601;48.042;12.240;2022-11-20T08:38:32;2.90;;;2.03;;
12756;SDS011;31601;48.042;12.240;2022-11-20T08:40:59;4.20;;;2.63;;
12756;SDS011;31601;48.042;12.240;2022-11-20T08:43:44;3.50;;;2.30;;
12756;SDS011;31601;48.042;12.240;2022-11-20T08:46:11;2.50;;;2.30;;
12756;SDS011;31601;48.042;12.240;2022-11-20T08:48:38;2.80;;;2.13;;
12756;SDS011;31601;48.042;12.240;2022-11-20T08:51:06;3.93;;;2.53;;
12756;SDS011;31601;48.042;12.240;2022-11-20T08:53:32;11.43;;;7.53;;
12756;SDS011;31601;48.042;12.240;2022-11-20T08:55:59;5.83;;;5.23;;
12756;SDS011;31601;48.042;12.240;2022-11-20T08:58:25;7.83;;;6.97;;
12756;SDS011;31601;48.042;12.240;2022-11-20T09:00:52;18.37;;;13.47;;
12756;SDS011;31601;48.042;12.240;2022-11-20T09:03:19;20.60;;;15.17;;
12756;SDS011;31601;48.042;12.240;2022-11-20T09:05:46;9.93;;;8.70;;
12756;SDS011;31601;48.042;12.240;2022-11-20T09:08:14;5.67;;;4.37;;
12756;SDS011;31601;48.042;12.240;2022-11-20T09:10:40;5.00;;;4.50;;
12756;SDS011;31601;48.042;12.240;2022-11-20T09:13:07;3.27;;;2.97;;
12756;SDS011;31601;48.042;12.240;2022-11-20T09:15:34;6.90;;;2.60;;
12756;SDS011;31601;48.042;12.240;2022-11-20T09:18:02;3.50;;;2.23;;
12756;SDS011;31601;48.042;12.240;2022-11-20T09:20:29;2.70;;;2.13;;
12756;SDS011;31601;48.042;12.240;2022-11-20T09:22:57;2.87;;;2.13;;
12756;SDS011;31601;48.042;12.240;2022-11-20T09:25:25;1.80;;;1.70;;
12756;SDS011;31601;48.042;12.240;2022-11-20T09:27:54;1.67;;;1.50;;
12756;SDS011;31601;48.042;12.240;2022-11-20T09:30:21;2.30;;;2.10;;
12756;SDS011;31601;48.042;12.240;2022-11-20T09:32:48;1.97;;;1.77;;
12756;SDS011;31601;48.042;12.240;2022-11-20T09:35:14;1.67;;;1.43;;
12756;SDS011;31601;48.042;12.240;2022-11-20T09:37:42;2.13;;;1.70;;
12756;SDS011;31601;48.042;12.240;2022-11-20T09:40:10;2.30;;;1.57;;
12756;SDS011;31601;48.042;12.240;2022-11-20T09:42:49;2.83;;;1.60;;
12756;SDS011;31601;48.042;12.240;2022-11-20T09:45:25;3.03;;;1.40;;
12756;SDS011;31601;48.042;12.240;2022-11-20T09:48:04;4.77;;;2.13;;
12756;SDS011;31601;48.042;12.240;2022-11-20T09:50:55;3.37;;;2.57;;
12756;SDS011;31601;48.042;12.240;2022-11-20T09:53:33;2.90;;;2.23;;
12756;SDS011;31601;48.042;12.240;2022-11-20T09:56:08;1.67;;;1.30;;
12756;SDS011;31601;48.042;12.240;2022-11-20T09:58:39;1.50;;;1.23;;
12756;SDS011;31601;48.042;12.240;2022-11-20T10:01:10;2.03;;;1.23;;
12756;SDS011;31601;48.042;12.240;2022-11-20T10:03:42;2.97;;;1.20;;
12756;SDS011;31601;48.042;12.240;2022-11-20T10:06:18;2.50;;;1.07;;
12756;SDS011;31601;48.042;12.240;2022-11-20T10:08:51;3.53;;;1.37;;
12756;SDS011;31601;48.042;12.240;2022-11-20T10:11:27;3.20;;;1.03;;
12756;SDS011;31601;48.042;12.240;2022-11-20T10:14:03;1.37;;;1.20;;
12756;SDS011;31601;48.042;12.240;2022-11-20T10:16:41;3.00;;;1.00;;
12756;SDS011;31601;48.042;12.240;2022-11-20T10:19:19;1.37;;;1.27;;
12756;SDS011;31601;48.042;12.240;2022-11-20T10:21:59;1.00;;;0.80;;
12756;SDS011;31601;48.042;12.240;2022-11-20T10:24:38;2.67;;;1.10;;
12756;SDS011;31601;48.042;12.240;2022-11-20T10:27:15;3.10;;;1.20;;
12756;SDS011;31601;48.042;12.240;2022-11-20T10:30:01;3.47;;;1.03;;
12756;SDS011;31601;48.042;12.240;2022-11-20T10:32:31;5.57;;;2.67;;
12756;SDS011;31601;48.042;12.240;2022-11-20T10:35:03;4.43;;;3.20;;
12756;SDS011;31601;48.042;12.240;2022-11-20T10:37:34;2.50;;;1.07;;
12756;SDS011;31601;48.042;12.240;2022-11-20T10:40:14;2.03;;;1.50;;
12756;SDS011;31601;48.042;12.240;2022-11-20T10:42:48;2.17;;;1.40;;
12756;SDS011;31601;48.042;12.240;2022-11-20T10:45:21;6.20;;;4.10;;
12756;SDS011;31601;48.042;12.240;2022-11-20T10:48:04;2.40;;;1.70;;
12756;SDS011;31601;48.042;12.240;2022-11-20T10:50:37;4.17;;;0.80;;
12756;SDS011;31601;48.042;12.240;2022-11-20T10:53:13;2.73;;;1.43;;
12756;SDS011;31601;48.042;12.240;2022-11-20T10:55:46;1.43;;;0.80;;
12756;SDS011;31601;48.042;12.240;2022-11-20T10:58:21;0.90;;;0.60;;
12756;SDS011;31601;48.042;12.240;2022-11-20T11:01:04;1.37;;;0.73;;
12756;SDS011;31601;48.042;12.240;2022-11-20T11:03:31;0.67;;;0.60;;
12756;SDS011;31601;48.042;12.240;2022-11-20T11:05:59;1.23;;;0.97;;
12756;SDS011;31601;48.042;12.240;2022-11-20T11:08:34;1.27;;;0.70;;
12756;SDS011;31601;48.042;12.240;2022-11-20T11:11:09;1.27;;;0.60;;
12756;SDS011;31601;48.042;12.240;2022-11-20T11:13:45;1.13;;;0.93;;
12756;SDS011;31601;48.042;12.240;2022-11-20T11:16:19;0.90;;;0.60;;
12756;SDS011;31601;48.042;12.240;2022-11-20T11:18:46;1.17;;;0.50;;
12756;SDS011;31601;48.042;12.240;2022-11-20T11:21:12;1.90;;;0.60;;
12756;SDS011;31601;48.042;12.240;2022-11-20T11:23:40;1.00;;;0.90;;
12756;SDS011;31601;48.042;12.240;2022-11-20T11:26:17;1.20;;;0.70;;
12756;SDS011;31601;48.042;12.240;2022-11-20T11:28:52;1.67;;;0.63;;
12756;SDS011;31601;48.042;12.240;2022-11-20T11:31:23;0.87;;;0.50;;
12756;SDS011;31601;48.042;12.240;2022-11-20T11:33:50;1.57;;;0.70;;
12756;SDS011;31601;48.042;12.240;2022-11-20T11:36:18;1.07;;;0.63;;
12756;SDS011;31601;48.042;12.240;2022-11-20T11:38:50;1.00;;;0.60;;
12756;SDS011;31601;48.042;12.240;2022-11-20T11:41:19;0.80;;;0.63;;
12756;SDS011;31601;48.042;12.240;2022-11-20T11:43:50;1.80;;;0.90;;
12756;SDS011;31601;48.042;12.240;2022-11-20T11:46:37;1.40;;;0.70;;
12756;SDS011;31601;48.042;12.240;2022-11-20T11:49:14;1.77;;;0.60;;
12756;SDS011;31601;48.042;12.240;2022-11-20T11:51:46;1.27;;;0.70;;
12756;SDS011;31601;48.042;12.240;2022-11-20T11:54:23;0.40;;;0.40;;
12756;SDS011;31601;48.042;12.240;2022-11-20T11:56:53;1.97;;;0.70;;
12756;SDS011;31601;48.042;12.240;2022-11-20T11:59:22;0.97;;;0.60;;
12756;SDS011;31601;48.042;12.240;2022-11-20T12:01:56;1.97;;;0.80;;
12756;SDS011;31601;48.042;12.240;2022-11-20T12:04:34;1.23;;;0.70;;
12756;SDS011;31601;48.042;12.240;2022-11-20T12:07:10;1.33;;;0.60;;
12756;SDS011;31601;48.042;12.240;2022-11-20T12:09:41;1.10;;;0.80;;
12756;SDS011;31601;48.042;12.240;2022-11-20T12:12:14;1.10;;;0.60;;
12756;SDS011;31601;48.042;12.240;2022-11-20T12:14:47;2.07;;;1.00;;
12756;SDS011;31601;48.042;12.240;2022-11-20T12:17:18;1.03;;;0.70;;
12756;SDS011;31601;48.042;12.240;2022-11-20T12:19:45;0.87;;;0.50;;
12756;SDS011;31601;48.042;12.240;2022-11-20T12:22:14;0.90;;;0.67;;
12756;SDS011;31601;48.042;12.240;2022-11-20T12:24:57;1.03;;;0.70;;
12756;SDS011;31601;48.042;12.240;2022-11-20T12:30:31;0.80;;;0.60;;
12756;SDS011;31601;48.042;12.240;2022-11-20T12:33:08;0.93;;;0.50;;
12756;SDS011;31601;48.042;12.240;2022-11-20T12:35:49;0.70;;;0.60;;
12756;SDS011;31601;48.042;12.240;2022-11-20T12:38:38;1.00;;;0.70;;
12756;SDS011;31601;48.042;12.240;2022-11-20T12:41:20;1.90;;;0.63;;
12756;SDS011;31601;48.042;12.240;2022-11-20T12:44:17;1.53;;;0.70;;
12756;SDS011;31601;48.042;12.240;2022-11-20T12:47:16;1.30;;;0.70;;
12756;SDS011;31601;48.042;12.240;2022-11-20T12:49:52;0.97;;;0.60;;
12756;SDS011;31601;48.042;12.240;2022-11-20T12:52:35;1.00;;;0.67;;
12756;SDS011;31601;48.042;12.240;2022-11-20T12:55:13;1.57;;;0.70;;
12756;SDS011;31601;48.042;12.240;2022-11-20T12:57:49;1.10;;;0.80;;
12756;SDS011;31601;48.042;12.240;2022-11-20T13:00:19;3.50;;;2.07;;
12756;SDS011;31601;48.042;12.240;2022-11-20T13:03:07;21.90;;;17.83;;
12756;SDS011;31601;48.042;12.240;2022-11-20T13:05:52;1.53;;;1.23;;
12756;SDS011;31601;48.042;12.240;2022-11-20T13:08:27;2.60;;;2.10;;
12756;SDS011;31601;48.042;12.240;2022-11-20T13:10:57;1.50;;;0.90;;
12756;SDS011;31601;48.042;12.240;2022-11-20T13:13:30;0.80;;;0.60;;
12756;SDS011;31601;48.042;12.240;2022-11-20T13:16:04;2.97;;;0.90;;
12756;SDS011;31601;48.042;12.240;2022-11-20T13:18:34;3.63;;;0.70;;
12756;SDS011;31601;48.042;12.240;2022-11-20T13:21:14;1.70;;;0.90;;
12756;SDS011;31601;48.042;12.240;2022-11-20T13:23:41;2.17;;;1.47;;
12756;SDS011;31601;48.042;12.240;2022-11-20T13:26:14;1.13;;;0.77;;
12756;SDS011;31601;48.042;12.240;2022-11-20T13:28:43;1.00;;;0.80;;
12756;SDS011;31601;48.042;12.240;2022-11-20T13:31:23;1.00;;;0.80;;
12756;SDS011;31601;48.042;12.240;2022-11-20T13:37:25;1.40;;;0.83;;
12756;SDS011;31601;48.042;12.240;2022-11-20T13:40:04;2.07;;;0.97;;
12756;SDS011;31601;48.042;12.240;2022-11-20T13:42:34;0.80;;;0.80;;
12756;SDS011;31601;48.042;12.240;2022-11-20T13:45:08;1.30;;;1.00;;
12756;SDS011;31601;48.042;12.240;2022-11-20T13:47:36;1.10;;;0.90;;
12756;SDS011;31601;48.042;12.240;2022-11-20T13:50:04;1.23;;;0.93;;
12756;SDS011;31601;48.042;12.240;2022-11-20T13:52:39;1.00;;;0.83;;
12756;SDS011;31601;48.042;12.240;2022-11-20T13:55:16;1.93;;;0.90;;
12756;SDS011;31601;48.042;12.240;2022-11-20T14:00:44;2.90;;;0.90;;
12756;SDS011;31601;48.042;12.240;2022-11-20T14:03:17;2.00;;;1.00;;
12756;SDS011;31601;48.042;12.240;2022-11-20T14:05:49;1.30;;;1.03;;
12756;SDS011;31601;48.042;12.240;2022-11-20T14:08:21;1.30;;;1.10;;
12756;SDS011;31601;48.042;12.240;2022-11-20T14:11:02;2.00;;;1.00;;
12756;SDS011;31601;48.042;12.240;2022-11-20T14:13:29;0.97;;;0.83;;
12756;SDS011;31601;48.042;12.240;2022-11-20T14:15:56;2.03;;;1.00;;
12756;SDS011;31601;48.042;12.240;2022-11-20T14:18:25;1.37;;;1.07;;
12756;SDS011;31601;48.042;12.240;2022-11-20T14:20:52;1.20;;;1.10;;
12756;SDS011;31601;48.042;12.240;2022-11-20T14:23:24;1.47;;;1.00;;
12756;SDS011;31601;48.042;12.240;2022-11-20T14:25:52;1.37;;;1.00;;
12756;SDS011;31601;48.042;12.240;2022-11-20T14:28:20;1.23;;;1.00;;
12756;SDS011;31601;48.042;12.240;2022-11-20T14:30:52;0.93;;;0.83;;
12756;SDS011;31601;48.042;12.240;2022-11-20T14:33:20;1.50;;;0.83;;
12756;SDS011;31601;48.042;12.240;2022-11-20T14:35:50;0.70;;;0.70;;
12756;SDS011;31601;48.042;12.240;2022-11-20T14:38:18;0.80;;;0.80;;
12756;SDS011;31601;48.042;12.240;2022-11-20T14:40:49;3.03;;;1.00;;
12756;SDS011;31601;48.042;12.240;2022-11-20T14:43:17;1.33;;;0.93;;
12756;SDS011;31601;48.042;12.240;2022-11-20T14:45:48;0.97;;;0.70;;
12756;SDS011;31601;48.042;12.240;2022-11-20T14:48:22;0.90;;;0.80;;
12756;SDS011;31601;48.042;12.240;2022-11-20T14:50:52;1.23;;;0.87;;
12756;SDS011;31601;48.042;12.240;2022-11-20T14:53:21;0.70;;;0.70;;
12756;SDS011;31601;48.042;12.240;2022-11-20T14:55:55;1.50;;;0.80;;
12756;SDS011;31601;48.042;12.240;2022-11-20T14:58:23;1.13;;;0.80;;
12756;SDS011;31601;48.042;12.240;2022-11-20T15:00:53;2.03;;;1.00;;